Sauk City, Wisconsin
Current Conditions -  °F | °C
As of 2:30 PM on Thursday 18 Dec 2014 (Local Time) from KC29 Reporting Station
Overcast Overcast  
Wind Chill: 22°   Ceiling: 1400
Heat Index: 28°   Visibility: 10mi
Dew Point: 21°   Wind: 5mph
Humidity: 78%   Direction: 340°NNW
Pressure: 30.23"   Gusts: NA
Location:  43.27°N, 89.72°W
Report Text: KC29 182030Z AUTO 34004KT 10SM OVC014 M02/M06 A3023 RMK AO1 T10251059
Loading
Personal Weather Stations






























Interactive Weather Map New forecast layout! Learn more

10-Day Weather Forecast

Advertisements
Track Severe Weather on mobile